Auburndale, Wisconsin
Current Conditions -  °F | °C
As of 11:27 AM on Thursday 23 Oct 2014 (Local Time) from KMFI Reporting Station
Moderate Rain Moderate Rain  
Wind Chill: 40°   Ceiling: 1400
Heat Index: 44°   Visibility: 2mi
Dew Point: 42°   Wind: 7mph
Humidity: 93%   Direction: 180°S
Pressure: 30.07"   Gusts: NA
Location:  44.63°N, 90.01°W
Report Text: KMFI 231627Z AUTO 18006KT 2SM RA BR FEW007 OVC014 07/06 A3007 RMK AO2 P0004 T00670056
Loading
Personal Weather Stations






























Interactive Weather Map
Tropical Storm Tracking
New forecast layout! Learn more

10-Day Weather Forecast

Advertisements
Track Severe Weather on mobile